Time;durP1;ratioP1;P1;durP2;ratioP2;P2;SDS_P1;SDS_P2;PMS_P1;PMS_P2;Temp;Humidity;BMP_temperature;BMP_pressure;BME280_temperature;BME280_humidity;BME280_pressure;Samples;Min_cycle;Max_cycle;Signal;HPM_P1;HPM_P2
2023/08/20 00:02:02;;;;;;;11.82;3.38;;;15.10;99.90;;;;;;4996130;28;20803;-76
2023/08/20 00:04:29;;;;;;;14.07;3.80;;;15.10;99.90;;;;;;5009128;28;20494;-74
2023/08/20 00:06:55;;;;;;;15.10;4.53;;;15.00;99.90;;;;;;5008325;28;20049;-77
2023/08/20 00:09:21;;;;;;;10.98;3.40;;;15.00;99.90;;;;;;4998379;28;20056;-75
2023/08/20 00:11:47;;;;;;;17.58;4.47;;;18.00;99.90;;;;;;5007701;28;20076;-76
2023/08/20 00:14:16;;;;;;;13.95;4.15;;;15.00;99.90;;;;;;5002693;28;20490;-73
2023/08/20 00:16:43;;;;;;;11.50;4.00;;;15.00;99.90;;;;;;4997687;28;20128;-76
2023/08/20 00:19:10;;;;;;;19.70;4.78;;;15.00;99.90;;;;;;4995888;28;20048;-73
2023/08/20 00:21:42;;;;;;;9.68;3.95;;;14.90;99.90;;;;;;4996524;28;20045;-75
2023/08/20 00:24:08;;;;;;;14.27;3.95;;;14.90;99.90;;;;;;4996282;28;20061;-75
2023/08/20 00:26:34;;;;;;;12.52;4.65;;;14.90;99.90;;;;;;4986324;28;20106;-75
2023/08/20 00:29:00;;;;;;;16.60;4.93;;;14.90;99.90;;;;;;4993484;28;20147;-75
2023/08/20 00:31:26;;;;;;;13.00;4.20;;;14.90;99.90;;;;;;4977656;28;20080;-75
2023/08/20 00:33:52;;;;;;;11.23;3.88;;;14.80;99.90;;;;;;4980668;28;20473;-73
2023/08/20 00:36:17;;;;;;;16.60;5.55;;;14.80;99.90;;;;;;4981393;28;20053;-74
2023/08/20 00:38:43;;;;;;;12.70;3.75;;;14.80;99.90;;;;;;4975548;28;20115;-73
2023/08/20 00:41:09;;;;;;;12.07;4.38;;;14.80;99.90;;;;;;4982536;28;20061;-75
2023/08/20 00:43:35;;;;;;;8.88;3.42;;;14.70;99.90;;;;;;4981780;28;20049;-75
2023/08/20 00:46:01;;;;;;;9.90;3.00;;;14.70;99.90;;;;;;5004692;28;20133;-73
2023/08/20 00:48:27;;;;;;;9.73;3.38;;;14.60;99.90;;;;;;4982342;28;20083;-73
2023/08/20 00:50:53;;;;;;;7.05;3.08;;;14.60;99.90;;;;;;4985331;28;20064;-74
2023/08/20 00:53:19;;;;;;;8.65;3.20;;;14.50;99.90;;;;;;4999271;28;20041;-75
2023/08/20 00:55:45;;;;;;;12.50;3.50;;;14.50;99.90;;;;;;4996796;28;20084;-73
2023/08/20 00:58:11;;;;;;;12.95;4.45;;;14.40;99.90;;;;;;4983841;28;20045;-74
2023/08/20 01:00:37;;;;;;;9.32;3.50;;;14.40;99.90;;;;;;4993212;28;20057;-74
2023/08/20 01:03:04;;;;;;;7.65;3.30;;;14.40;99.90;;;;;;4995949;28;20064;-76
2023/08/20 01:05:36;;;;;;;9.73;3.42;;;14.40;99.90;;;;;;4970831;28;20058;-74
2023/08/20 01:08:25;;;;;;;15.68;4.07;;;14.40;99.90;;;;;;4996888;28;20089;-75
2023/08/20 01:11:13;;;;;;;12.48;4.20;;;14.40;99.90;;;;;;4992834;28;20136;-75
2023/08/20 01:13:38;;;;;;;17.63;4.93;;;14.40;99.90;;;;;;4996450;28;20045;-73
2023/08/20 01:16:04;;;;;;;12.30;5.20;;;14.40;99.90;;;;;;4999052;28;20607;-74
2023/08/20 01:18:30;;;;;;;10.43;2.35;;;14.30;99.90;;;;;;5015998;28;20052;-74
2023/08/20 01:21:01;;;;;;;3.25;1.30;;;14.30;99.90;;;;;;5016501;28;20533;-74
2023/08/20 01:23:54;;;;;;;3.97;1.30;;;14.30;99.90;;;;;;5001499;28;20040;-73
2023/08/20 01:26:32;;;;;;;6.38;2.47;;;14.30;99.90;;;;;;4996414;28;20144;-75
2023/08/20 01:28:58;;;;;;;8.90;2.95;;;14.20;99.90;;;;;;5001405;28;20940;-73
2023/08/20 01:31:26;;;;;;;9.02;2.75;;;14.10;99.90;;;;;;5020852;28;20057;-75
2023/08/20 01:33:52;;;;;;;8.38;2.20;;;11.30;99.90;;;;;;4996509;28;20061;-73
2023/08/20 01:36:18;;;;;;;7.80;2.75;;;14.00;99.90;;;;;;5019909;28;20048;-73
2023/08/20 01:38:43;;;;;;;7.18;2.30;;;14.00;99.90;;;;;;5019857;28;20693;-73
2023/08/20 01:41:09;;;;;;;16.10;4.63;;;14.00;99.90;;;;;;5003698;28;20057;-74
2023/08/20 01:43:35;;;;;;;11.98;4.75;;;14.00;99.90;;;;;;5019797;28;20589;-75
2023/08/20 01:46:01;;;;;;;14.30;5.30;;;14.00;99.90;;;;;;5020453;28;20049;-75
2023/08/20 01:48:27;;;;;;;15.63;5.50;;;14.10;99.90;;;;;;5021088;28;20098;-73
2023/08/20 01:50:53;;;;;;;18.10;5.78;;;14.10;99.90;;;;;;5003884;28;20052;-75
2023/08/20 01:53:18;;;;;;;14.38;4.63;;;14.10;99.90;;;;;;5019215;28;20044;-74
2023/08/20 01:55:44;;;;;;;15.07;5.45;;;14.10;99.90;;;;;;5003016;28;20056;-74
2023/08/20 01:58:10;;;;;;;23.30;6.25;;;14.10;99.90;;;;;;5019327;28;20567;-74
2023/08/20 02:00:36;;;;;;;9.02;3.95;;;14.10;99.90;;;;;;5003639;28;20057;-75
2023/08/20 02:03:02;;;;;;;15.50;5.72;;;14.10;99.90;;;;;;4998403;28;20602;-75
2023/08/20 02:05:28;;;;;;;12.57;4.53;;;14.10;99.90;;;;;;5018401;28;20045;-73
2023/08/20 02:07:54;;;;;;;11.60;4.28;;;14.00;99.90;;;;;;5019740;28;20540;-73
2023/08/20 02:10:21;;;;;;;13.02;4.55;;;14.00;99.90;;;;;;5013809;28;20061;-73
2023/08/20 02:12:47;;;;;;;8.68;3.42;;;14.00;99.90;;;;;;5018977;28;20048;-74
2023/08/20 02:15:12;;;;;;;9.90;3.80;;;15.80;99.90;;;;;;5004382;28;20049;-73
2023/08/20 02:17:38;;;;;;;6.93;2.97;;;14.00;99.90;;;;;;5014409;28;20545;-73
2023/08/20 02:20:05;;;;;;;7.90;3.00;;;14.00;99.90;;;;;;5019932;28;20057;-74
2023/08/20 02:22:31;;;;;;;8.38;4.00;;;13.90;99.90;;;;;;5004802;28;20076;-72
2023/08/20 02:24:57;;;;;;;5.57;2.40;;;13.90;99.90;;;;;;5021040;28;20812;-73
2023/08/20 02:27:23;;;;;;;3.20;2.10;;;13.80;99.90;;;;;;5021066;28;20048;-75
2023/08/20 02:29:49;;;;;;;7.38;2.22;;;13.80;99.90;;;;;;5020132;28;20111;-74
2023/08/20 02:32:14;;;;;;;6.88;2.40;;;13.70;99.90;;;;;;5003478;28;20044;-74
2023/08/20 02:34:40;;;;;;;4.68;2.30;;;13.60;99.90;;;;;;4996838;28;20052;-74
2023/08/20 02:37:06;;;;;;;7.57;3.15;;;13.60;99.90;;;;;;5003034;28;20053;-74
2023/08/20 02:39:32;;;;;;;8.43;3.05;;;13.50;99.90;;;;;;4996658;28;20061;-75
2023/08/20 02:41:58;;;;;;;4.28;3.15;;;13.50;99.90;;;;;;5003154;28;20082;-77
2023/08/20 02:44:24;;;;;;;4.00;2.50;;;13.40;99.90;;;;;;5021264;28;20075;-74
2023/08/20 02:46:49;;;;;;;4.05;2.30;;;13.40;99.90;;;;;;5021345;28;20119;-75
2023/08/20 02:49:15;;;;;;;7.78;3.50;;;13.30;99.90;;;;;;5003736;28;20557;-75
2023/08/20 02:51:43;;;;;;;6.03;3.90;;;13.20;99.90;;;;;;5002033;28;20493;-75
2023/08/20 02:54:09;;;;;;;11.15;4.25;;;13.20;99.90;;;;;;5018026;28;20049;-75
2023/08/20 02:56:35;;;;;;;12.73;4.90;;;13.20;99.90;;;;;;5017888;28;20126;-74
2023/08/20 02:59:01;;;;;;;11.70;6.35;;;13.20;99.90;;;;;;5004613;28;20584;-74
2023/08/20 03:01:27;;;;;;;14.73;6.68;;;13.20;99.90;;;;;;5001611;28;20114;-74
2023/08/20 03:03:52;;;;;;;15.88;7.00;;;13.20;99.90;;;;;;4992360;28;20064;-74
2023/08/20 03:06:18;;;;;;;23.02;9.23;;;13.30;99.90;;;;;;5019137;28;20053;-75
2023/08/20 03:08:44;;;;;;;17.35;9.43;;;13.30;99.90;;;;;;5003269;28;20106;-76
2023/08/20 03:11:10;;;;;;;19.98;9.43;;;13.30;99.90;;;;;;5014332;28;20045;-76
2023/08/20 03:13:36;;;;;;;23.85;10.23;;;13.40;99.90;;;;;;4999617;28;20084;-75
2023/08/20 03:16:03;;;;;;;28.20;12.18;;;13.40;99.90;;;;;;5016411;28;20736;-76
2023/08/20 03:18:28;;;;;;;20.08;10.55;;;13.40;99.90;;;;;;5000188;28;20403;-74
2023/08/20 03:20:56;;;;;;;19.77;9.90;;;13.40;99.90;;;;;;5000783;28;20083;-76
2023/08/20 03:23:23;;;;;;;18.90;11.73;;;13.50;99.90;;;;;;5016076;28;20136;-77
2023/08/20 03:25:48;;;;;;;22.33;12.48;;;13.50;99.90;;;;;;5016273;28;20046;-76
2023/08/20 03:28:15;;;;;;;18.17;11.52;;;13.50;99.90;;;;;;4999816;28;20053;-76
2023/08/20 03:30:41;;;;;;;23.38;12.45;;;13.50;99.90;;;;;;4997644;28;20323;-77
2023/08/20 03:33:07;;;;;;;21.27;11.85;;;13.50;99.90;;;;;;4999321;28;20148;-77
2023/08/20 03:35:33;;;;;;;24.95;14.20;;;13.50;99.90;;;;;;4988642;28;20117;-76
2023/08/20 03:37:58;;;;;;;33.05;14.23;;;13.50;99.90;;;;;;5015746;28;20490;-77
2023/08/20 03:40:24;;;;;;;23.55;12.27;;;13.50;99.90;;;;;;4999769;28;20049;-77
2023/08/20 03:42:50;;;;;;;22.95;13.45;;;13.60;99.90;;;;;;4999291;28;20052;-77
2023/08/20 03:45:16;;;;;;;17.85;11.38;;;15.60;99.90;;;;;;4999716;28;20124;-78
2023/08/20 03:47:44;;;;;;;22.35;11.25;;;13.60;99.90;;;;;;4998340;28;20057;-79
2023/08/20 03:50:10;;;;;;;23.05;12.15;;;13.60;99.90;;;;;;4997835;28;20052;-80
2023/08/20 03:52:36;;;;;;;19.73;10.57;;;13.50;99.90;;;;;;5010263;28;20136;-77
2023/08/20 03:55:22;;;;;;;19.67;11.13;;;13.50;99.90;;;;;;5015001;28;20083;-80
2023/08/20 03:57:48;;;;;;;19.00;10.88;;;13.50;99.90;;;;;;4972959;28;20112;-77
2023/08/20 04:00:14;;;;;;;18.70;11.80;;;13.40;99.90;;;;;;4971607;28;20053;-78
2023/08/20 04:02:40;;;;;;;19.85;11.43;;;13.40;99.90;;;;;;4961384;28;20054;-78
2023/08/20 04:05:06;;;;;;;21.02;12.82;;;13.40;99.90;;;;;;4952202;28;20057;-81
2023/08/20 04:07:32;;;;;;;18.27;11.48;;;13.40;99.90;;;;;;4960334;28;20076;-81
2023/08/20 04:09:57;;;;;;;17.27;10.75;;;13.30;99.90;;;;;;4960815;28;20053;-83
2023/08/20 04:12:23;;;;;;;16.45;10.93;;;13.30;99.90;;;;;;4963910;28;20151;-79
2023/08/20 04:14:49;;;;;;;19.98;11.13;;;13.30;99.90;;;;;;4964676;28;20054;-79
2023/08/20 04:17:15;;;;;;;18.67;10.80;;;13.30;99.90;;;;;;4977985;28;20054;-78
2023/08/20 04:19:41;;;;;;;17.40;11.23;;;13.20;99.90;;;;;;4957047;28;20690;-79
2023/08/20 04:22:07;;;;;;;22.20;11.98;;;13.20;99.90;;;;;;4975722;28;20050;-78
2023/08/20 04:24:33;;;;;;;20.27;13.23;;;12.70;99.90;;;;;;4952000;28;20156;-79
2023/08/20 04:26:59;;;;;;;21.02;12.10;;;13.20;99.90;;;;;;4976666;28;20046;-78
2023/08/20 04:29:25;;;;;;;14.63;11.13;;;13.30;99.90;;;;;;5006881;28;20041;-77
2023/08/20 04:31:50;;;;;;;22.60;12.27;;;13.20;99.90;;;;;;5014150;28;20053;-77
2023/08/20 04:34:16;;;;;;;23.23;12.02;;;13.30;99.90;;;;;;4994476;28;20060;-78
2023/08/20 04:36:42;;;;;;;21.45;12.25;;;13.30;99.90;;;;;;5017993;28;20057;-78
2023/08/20 04:39:08;;;;;;;17.40;11.70;;;13.30;99.90;;;;;;5017236;28;20076;-78
2023/08/20 04:41:34;;;;;;;23.80;13.10;;;13.30;99.90;;;;;;5013485;28;20885;-81
2023/08/20 04:43:59;;;;;;;23.80;14.10;;;13.30;99.90;;;;;;4998729;28;20095;-79
2023/08/20 04:46:25;;;;;;;20.55;13.27;;;13.30;99.90;;;;;;5016471;28;20140;-80
2023/08/20 04:48:51;;;;;;;20.85;12.70;;;13.30;99.90;;;;;;5000767;28;20052;-77
2023/08/20 04:51:17;;;;;;;26.13;13.63;;;13.30;99.90;;;;;;5016293;28;20045;-77
2023/08/20 04:53:43;;;;;;;19.83;13.25;;;13.40;99.90;;;;;;5016213;28;20053;-78
2023/08/20 04:56:09;;;;;;;19.50;12.57;;;13.40;99.90;;;;;;5015677;28;20048;-78
2023/08/20 04:58:34;;;;;;;22.23;13.82;;;13.50;99.90;;;;;;5016025;28;20156;-79
2023/08/20 05:01:00;;;;;;;18.65;12.20;;;13.50;99.90;;;;;;5018674;28;20049;-78
2023/08/20 05:03:26;;;;;;;22.63;14.60;;;13.60;99.90;;;;;;5014801;28;20049;-78
2023/08/20 05:05:52;;;;;;;16.48;13.55;;;13.60;99.90;;;;;;5020414;28;20041;-78
2023/08/20 05:08:18;;;;;;;17.38;12.48;;;13.70;99.90;;;;;;5006367;28;20131;-78
2023/08/20 05:10:43;;;;;;;21.52;12.82;;;11.50;99.90;;;;;;4997429;28;20053;-79
2023/08/20 05:13:10;;;;;;;23.13;12.68;;;13.80;99.90;;;;;;5004180;28;20056;-78
2023/08/20 05:15:35;;;;;;;20.77;13.30;;;14.00;99.90;;;;;;5005149;28;20056;-78
2023/08/20 05:18:01;;;;;;;22.08;13.40;;;14.00;99.90;;;;;;5023216;28;20045;-78
2023/08/20 05:20:27;;;;;;;22.85;12.77;;;14.10;99.90;;;;;;5025531;28;20051;-77
2023/08/20 05:22:53;;;;;;;15.85;11.20;;;14.20;99.90;;;;;;5021307;28;20624;-77
2023/08/20 05:25:19;;;;;;;17.08;11.15;;;14.20;99.90;;;;;;5002905;28;20053;-77
2023/08/20 05:27:44;;;;;;;17.55;12.50;;;14.30;99.90;;;;;;4999373;28;20072;-78
2023/08/20 05:30:11;;;;;;;20.27;12.90;;;14.30;99.90;;;;;;5002875;28;20527;-78
2023/08/20 05:32:37;;;;;;;20.58;13.15;;;14.40;99.90;;;;;;5003787;28;20037;-77
2023/08/20 05:35:03;;;;;;;28.55;16.27;;;14.60;99.90;;;;;;4997403;28;20224;-77
2023/08/20 05:37:30;;;;;;;23.52;15.05;;;15.00;99.90;;;;;;4997475;28;20072;-77
2023/08/20 05:39:55;;;;;;;17.88;12.15;;;15.80;99.90;;;;;;5019323;28;20044;-77
2023/08/20 05:42:21;;;;;;;19.02;12.85;;;16.90;99.90;;;;;;5014821;28;20055;-77
2023/08/20 05:44:47;;;;;;;18.35;12.43;;;18.00;99.90;;;;;;5020626;28;20040;-77
2023/08/20 05:47:13;;;;;;;15.70;8.52;;;19.00;99.90;;;;;;5020040;28;20157;-77
2023/08/20 05:49:39;;;;;;;11.27;7.65;;;19.90;99.90;;;;;;5020340;28;20044;-76
2023/08/20 05:52:04;;;;;;;14.88;6.53;;;20.70;99.90;;;;;;5002490;28;20037;-76
2023/08/20 05:54:30;;;;;;;10.63;5.53;;;21.40;99.90;;;;;;5004170;28;20049;-75
2023/08/20 05:56:58;;;;;;;9.43;5.90;;;21.70;99.90;;;;;;5016984;28;20049;-75
2023/08/20 05:59:23;;;;;;;10.05;5.90;;;22.10;99.90;;;;;;5019523;28;20698;-75
2023/08/20 06:01:49;;;;;;;8.77;4.93;;;23.00;99.90;;;;;;5002207;28;20090;-75
2023/08/20 06:04:15;;;;;;;10.48;4.25;;;23.80;99.90;;;;;;5014007;28;20715;-75
2023/08/20 06:06:41;;;;;;;7.47;4.03;;;24.50;99.90;;;;;;5018405;28;20045;-75
2023/08/20 06:09:07;;;;;;;6.88;3.63;;;25.20;99.90;;;;;;5015781;28;20046;-75
2023/08/20 06:11:33;;;;;;;4.68;3.00;;;25.80;99.90;;;;;;5001117;28;20056;-74
2023/08/20 06:13:59;;;;;;;8.50;3.35;;;26.40;99.90;;;;;;5006623;28;20383;-75
2023/08/20 06:16:25;;;;;;;8.13;2.80;;;26.90;99.90;;;;;;5019540;28;20044;-75
2023/08/20 06:18:51;;;;;;;5.65;2.50;;;27.50;99.90;;;;;;5013346;28;20051;-75
2023/08/20 06:21:17;;;;;;;7.45;2.70;;;28.10;99.90;;;;;;5002710;28;20063;-75
2023/08/20 06:23:43;;;;;;;8.25;3.33;;;28.60;99.90;;;;;;5004370;28;20160;-75
2023/08/20 06:26:09;;;;;;;9.63;2.42;;;29.20;98.60;;;;;;5020880;28;20132;-75
2023/08/20 06:28:34;;;;;;;8.07;2.72;;;29.70;97.30;;;;;;5003499;28;20055;-74
2023/08/20 06:31:00;;;;;;;5.00;1.88;;;30.50;95.90;;;;;;5000407;28;20076;-75
2023/08/20 06:33:26;;;;;;;9.38;2.30;;;30.70;94.30;;;;;;5007784;28;20118;-74
2023/08/20 06:35:52;;;;;;;6.75;2.05;;;31.20;92.80;;;;;;4995291;28;20148;-75
2023/08/20 06:38:18;;;;;;;5.80;1.55;;;31.60;91.80;;;;;;5009172;28;20053;-73
2023/08/20 06:40:44;;;;;;;7.43;1.90;;;32.00;91.30;;;;;;5020009;28;20844;-75
2023/08/20 06:43:09;;;;;;;7.68;1.92;;;32.30;90.00;;;;;;4999502;28;20505;-74
2023/08/20 06:45:35;;;;;;;5.50;1.58;;;32.60;87.50;;;;;;5019840;28;20138;-74
2023/08/20 06:48:01;;;;;;;10.20;2.55;;;33.00;84.70;;;;;;5017553;28;20468;-73
2023/08/20 06:50:27;;;;;;;5.50;1.42;;;33.50;82.90;;;;;;5011220;28;20064;-74
2023/08/20 06:52:53;;;;;;;8.23;1.92;;;33.80;80.90;;;;;;5009663;28;20102;-73
2023/08/20 06:55:19;;;;;;;7.50;1.67;;;34.00;79.10;;;;;;5016966;28;20777;-74
2023/08/20 06:57:45;;;;;;;4.88;1.23;;;34.50;77.40;;;;;;5003886;28;20049;-74
2023/08/20 07:00:11;;;;;;;5.63;1.85;;;34.80;75.00;;;;;;5013552;28;20055;-73
2023/08/20 07:02:37;;;;;;;3.95;0.98;;;35.20;73.00;;;;;;5020747;28;20087;-75
2023/08/20 07:05:03;;;;;;;4.20;0.90;;;35.60;71.80;;;;;;5003287;28;20418;-73
2023/08/20 07:07:29;;;;;;;6.50;1.10;;;35.90;69.90;;;;;;5013101;28;20060;-74
2023/08/20 07:09:54;;;;;;;4.18;0.88;;;36.10;69.20;;;;;;5008846;28;20686;-79
2023/08/20 07:12:21;;;;;;;6.57;1.42;;;36.40;68.30;;;;;;5004661;28;20049;-76
2023/08/20 07:14:47;;;;;;;8.10;1.88;;;36.60;66.30;;;;;;5002620;28;20530;-73
2023/08/20 07:17:12;;;;;;;7.20;1.15;;;36.80;65.70;;;;;;5019798;28;20060;-76
2023/08/20 07:19:38;;;;;;;5.65;1.38;;;36.80;64.90;;;;;;5017496;28;20512;-76
2023/08/20 07:22:04;;;;;;;6.03;1.45;;;36.90;64.00;;;;;;5002033;28;20597;-76
2023/08/20 07:24:34;;;;;;;4.55;1.10;;;37.30;63.40;;;;;;5001000;28;20049;-74
2023/08/20 07:27:02;;;;;;;3.55;0.70;;;36.70;63.00;;;;;;5000858;28;20053;-75
2023/08/20 07:29:31;;;;;;;4.43;0.68;;;35.10;63.80;;;;;;5016140;28;20912;-76
2023/08/20 07:31:57;;;;;;;6.30;0.73;;;33.40;65.70;;;;;;4995980;28;20076;-76
2023/08/20 07:34:23;;;;;;;5.85;1.20;;;31.90;67.60;;;;;;4999132;28;20084;-73
2023/08/20 07:36:48;;;;;;;7.53;0.70;;;30.60;69.50;;;;;;5002750;28;20091;-73
2023/08/20 07:39:17;;;;;;;8.38;2.22;;;29.60;71.80;;;;;;5002613;28;20056;-75
2023/08/20 07:41:43;;;;;;;4.97;0.70;;;28.70;74.10;;;;;;4997689;28;20057;-72
2023/08/20 07:44:08;;;;;;;6.82;0.88;;;27.90;75.80;;;;;;5001082;28;20513;-73
2023/08/20 07:46:34;;;;;;;5.65;1.60;;;27.80;76.90;;;;;;5001777;28;20712;-74
2023/08/20 07:49:00;;;;;;;9.50;1.35;;;27.40;78.20;;;;;;5018375;28;20101;-74
2023/08/20 07:51:26;;;;;;;6.93;0.95;;;27.00;79.50;;;;;;5001915;28;20049;-73
2023/08/20 07:53:52;;;;;;;7.68;1.17;;;26.70;80.90;;;;;;5018718;28;20728;-73
2023/08/20 07:56:18;;;;;;;6.63;0.80;;;26.40;81.90;;;;;;5002205;28;20049;-74
2023/08/20 07:58:44;;;;;;;6.20;1.08;;;26.20;84.00;;;;;;5018232;28;20053;-72
2023/08/20 08:01:10;;;;;;;6.13;0.88;;;25.70;85.40;;;;;;5001414;28;20060;-73
2023/08/20 08:03:35;;;;;;;5.93;0.90;;;27.70;85.90;;;;;;5012455;28;20053;-73
2023/08/20 08:06:01;;;;;;;6.88;0.70;;;29.10;83.70;;;;;;5018337;28;20091;-75
2023/08/20 08:08:27;;;;;;;6.97;1.00;;;30.30;81.40;;;;;;5002127;28;20194;-74
2023/08/20 08:10:53;;;;;;;5.50;0.93;;;31.40;78.70;;;;;;5001246;28;20157;-72
2023/08/20 08:13:21;;;;;;;5.80;1.00;;;32.20;76.40;;;;;;5000869;28;20468;-73
2023/08/20 08:15:48;;;;;;;7.18;1.00;;;32.90;74.30;;;;;;5018175;28;20044;-73
2023/08/20 08:18:14;;;;;;;8.10;0.70;;;34.00;72.80;;;;;;5000725;28;20040;-73
2023/08/20 08:20:40;;;;;;;4.35;0.70;;;34.50;70.80;;;;;;4999806;28;20850;-72
2023/08/20 08:23:06;;;;;;;5.25;0.70;;;35.30;68.80;;;;;;5011368;28;20072;-73
2023/08/20 08:25:32;;;;;;;6.57;0.47;;;36.10;66.40;;;;;;5000667;28;20809;-75
2023/08/20 08:27:58;;;;;;;6.35;0.85;;;36.70;64.80;;;;;;5000478;28;20052;-73
2023/08/20 08:30:24;;;;;;;4.35;1.17;;;37.10;64.10;;;;;;5016604;28;20049;-75
2023/08/20 08:32:49;;;;;;;5.15;1.05;;;37.30;63.50;;;;;;4993455;28;20473;-76
2023/08/20 08:35:17;;;;;;;9.00;1.20;;;37.50;62.60;;;;;;5017025;28;20702;-73
2023/08/20 08:37:43;;;;;;;5.10;0.80;;;37.50;62.20;;;;;;5017391;28;20048;-70
2023/08/20 08:40:09;;;;;;;4.38;0.50;;;37.20;61.90;;;;;;5022373;28;20048;-73
2023/08/20 08:42:35;;;;;;;6.25;0.95;;;37.00;61.50;;;;;;5004771;28;20611;-72
2023/08/20 08:45:02;;;;;;;4.72;0.50;;;37.20;61.90;;;;;;5019629;28;20476;-76
2023/08/20 08:47:29;;;;;;;7.13;0.63;;;37.30;61.30;;;;;;5004690;28;20049;-75
2023/08/20 08:49:56;;;;;;;3.95;0.80;;;37.40;60.00;;;;;;5018406;28;20042;-73
2023/08/20 08:52:26;;;;;;;3.75;0.55;;;37.70;60.00;;;;;;5002002;28;20044;-72
2023/08/20 08:54:52;;;;;;;4.20;0.67;;;37.70;59.70;;;;;;5002802;28;20185;-77
2023/08/20 08:57:19;;;;;;;5.72;0.68;;;37.60;59.70;;;;;;4999268;28;20056;-74
2023/08/20 08:59:45;;;;;;;2.58;0.38;;;37.20;60.20;;;;;;5014876;28;20048;-74
2023/08/20 09:02:12;;;;;;;4.07;0.70;;;37.10;59.50;;;;;;5015687;28;20082;-75
2023/08/20 09:04:39;;;;;;;5.10;0.50;;;37.20;59.30;;;;;;5033503;28;20060;-78
2023/08/20 09:07:05;;;;;;;4.63;1.02;;;37.30;58.30;;;;;;5003581;28;20052;-76
2023/08/20 09:09:31;;;;;;;4.88;0.88;;;37.80;58.00;;;;;;5004817;28;20126;-73
2023/08/20 09:11:57;;;;;;;3.42;0.40;;;38.00;56.60;;;;;;4998945;28;20096;-72
2023/08/20 09:14:24;;;;;;;3.13;0.50;;;38.00;57.30;;;;;;5021522;28;20053;-82
2023/08/20 09:16:58;;;;;;;2.42;0.30;;;37.90;57.20;;;;;;5021706;28;20041;-75
2023/08/20 09:19:24;;;;;;;2.70;0.30;;;37.70;56.50;;;;;;5012269;28;20135;-74
2023/08/20 09:21:52;;;;;;;3.30;0.40;;;37.50;57.10;;;;;;5020201;28;20049;-75
2023/08/20 09:24:32;;;;;;;3.85;0.30;;;37.30;56.90;;;;;;5008323;28;20413;-74
2023/08/20 09:26:59;;;;;;;2.97;0.25;;;37.20;56.40;;;;;;5007449;28;20067;-74
2023/08/20 09:29:24;;;;;;;2.15;0.35;;;37.20;57.20;;;;;;5010076;28;20095;-75
2023/08/20 09:32:01;;;;;;;2.28;0.40;;;37.10;57.10;;;;;;5020876;28;20670;-77
2023/08/20 09:34:37;;;;;;;2.05;0.40;;;37.20;57.20;;;;;;5012997;28;20175;-74
2023/08/20 09:37:03;;;;;;;4.78;0.63;;;37.20;56.70;;;;;;5012632;28;20484;-74
2023/08/20 09:39:29;;;;;;;4.03;0.57;;;36.70;56.50;;;;;;5019838;28;20759;-84
2023/08/20 09:41:57;;;;;;;3.83;0.30;;;36.20;58.50;;;;;;5008302;28;20052;-74
2023/08/20 09:44:24;;;;;;;3.95;1.05;;;35.60;58.50;;;;;;5016827;28;20175;-73
2023/08/20 09:46:51;;;;;;;6.00;0.40;;;35.30;59.70;;;;;;5022230;28;20049;-77
2023/08/20 09:49:19;;;;;;;3.58;0.30;;;35.30;59.60;;;;;;5013052;28;20052;-75
2023/08/20 09:51:50;;;;;;;5.05;0.40;;;35.50;60.10;;;;;;5020018;28;20140;-74
2023/08/20 09:54:45;;;;;;;3.30;0.38;;;35.50;59.30;;;;;;4989398;28;20156;-76
2023/08/20 09:57:23;;;;;;;3.47;0.40;;;35.10;59.90;;;;;;5016760;28;20045;-72
2023/08/20 09:59:50;;;;;;;3.15;0.30;;;34.40;61.00;;;;;;5019480;28;20049;-72
2023/08/20 10:02:16;;;;;;;3.35;0.50;;;34.10;61.30;;;;;;5009925;28;20061;-72
2023/08/20 10:04:43;;;;;;;3.58;0.50;;;34.10;61.50;;;;;;5023943;28;20591;-74
2023/08/20 10:07:11;;;;;;;3.55;0.30;;;34.40;61.70;;;;;;5021098;28;20644;-72
2023/08/20 10:09:39;;;;;;;3.47;0.50;;;34.60;61.20;;;;;;5008432;28;20453;-76
2023/08/20 10:12:05;;;;;;;4.68;0.85;;;34.60;61.20;;;;;;5004847;28;20059;-73
2023/08/20 10:14:32;;;;;;;4.78;0.70;;;34.10;62.50;;;;;;5003587;28;20037;-76
2023/08/20 10:16:57;;;;;;;3.90;0.32;;;33.70;63.60;;;;;;5002729;28;20146;-76
2023/08/20 10:19:24;;;;;;;1.50;0.30;;;33.40;64.30;;;;;;5020246;28;20127;-81
2023/08/20 10:21:53;;;;;;;5.65;0.77;;;33.30;64.10;;;;;;5020266;28;20498;-85
2023/08/20 10:24:19;;;;;;;3.88;0.70;;;33.00;64.90;;;;;;5020730;28;20529;-80
2023/08/20 10:26:48;;;;;;;3.47;0.40;;;32.80;64.40;;;;;;5004039;28;20045;-79
2023/08/20 10:29:38;;;;;;;2.78;0.40;;;32.70;64.40;;;;;;5002423;28;20065;-75
2023/08/20 10:32:13;;;;;;;;;;;32.50;65.30;;;;;;5016771;28;20051;-81
2023/08/20 10:34:42;;;;;;;2.47;0.30;;;32.10;66.50;;;;;;5001716;28;19924;-75
2023/08/20 10:37:27;;;;;;;5.65;0.43;;;31.90;66.50;;;;;;5020066;28;20041;-78
2023/08/20 10:39:57;;;;;;;2.28;0.30;;;31.60;66.00;;;;;;4988832;28;20052;-75
2023/08/20 10:42:27;;;;;;;2.28;0.43;;;31.50;66.00;;;;;;5001304;28;20049;-76
2023/08/20 10:45:09;;;;;;;4.47;0.40;;;31.20;65.70;;;;;;5001854;28;20049;-83
2023/08/20 10:47:50;;;;;;;5.38;0.47;;;31.10;66.30;;;;;;5000499;28;20726;-84
2023/08/20 10:50:18;;;;;;;2.55;0.30;;;30.60;66.70;;;;;;5002992;28;20111;-73
2023/08/20 10:52:55;;;;;;;5.47;0.50;;;30.20;67.90;;;;;;5019528;28;20060;-79
2023/08/20 10:55:24;;;;;;;3.83;0.50;;;29.80;69.10;;;;;;5019563;28;20049;-75
2023/08/20 10:57:59;;;;;;;3.70;0.40;;;29.60;70.00;;;;;;5019490;28;20044;-75
2023/08/20 11:00:25;;;;;;;2.97;0.28;;;29.30;70.30;;;;;;5002383;28;20052;-76
2023/08/20 11:02:53;;;;;;;4.93;0.30;;;29.00;71.30;;;;;;4983477;28;20053;-77
2023/08/20 11:05:21;;;;;;;2.17;0.22;;;28.60;71.80;;;;;;4975196;28;20173;-77
2023/08/20 11:07:48;;;;;;;2.60;0.30;;;28.20;72.90;;;;;;4956702;28;20061;-76
2023/08/20 11:10:16;;;;;;;2.88;0.38;;;27.90;74.00;;;;;;4914096;28;20054;-82
2023/08/20 11:12:43;;;;;;;4.25;0.57;;;27.60;74.90;;;;;;4933368;28;22653;-83
2023/08/20 11:15:21;;;;;;;4.47;0.57;;;26.10;74.50;;;;;;4914250;28;20115;-83
2023/08/20 11:17:48;;;;;;;1.65;0.40;;;27.10;76.10;;;;;;4925364;28;20054;-77
2023/08/20 11:20:15;;;;;;;3.88;0.20;;;26.90;77.10;;;;;;4949709;28;20610;-76
2023/08/20 11:22:41;;;;;;;4.30;0.40;;;26.70;76.80;;;;;;4933212;28;20058;-73
2023/08/20 11:25:14;;;;;;;5.25;0.38;;;26.70;76.90;;;;;;4929366;28;20989;-74
2023/08/20 11:27:45;;;;;;;4.32;0.40;;;26.60;76.10;;;;;;4927142;28;20213;-78
2023/08/20 11:30:14;;;;;;;3.95;0.38;;;26.50;76.50;;;;;;4952012;28;20062;-75
2023/08/20 11:32:52;;;;;;;3.50;0.22;;;26.50;77.50;;;;;;4929483;28;20104;-75
2023/08/20 11:35:19;;;;;;;2.42;0.35;;;26.50;77.90;;;;;;4924715;28;20090;-83
2023/08/20 11:37:45;;;;;;;2.95;0.40;;;26.50;78.50;;;;;;4931283;28;20137;-74
2023/08/20 11:40:11;;;;;;;4.28;0.40;;;26.50;79.20;;;;;;4938529;28;20053;-75
2023/08/20 11:42:40;;;;;;;2.35;0.28;;;26.60;79.90;;;;;;4923383;28;20064;-74
2023/08/20 11:45:10;;;;;;;3.20;0.35;;;26.60;79.20;;;;;;4933367;28;20053;-73
2023/08/20 11:47:40;;;;;;;4.97;0.60;;;26.50;80.00;;;;;;4918513;28;22976;-75
2023/08/20 11:50:07;;;;;;;4.55;0.30;;;26.40;81.10;;;;;;4927935;28;20068;-87
2023/08/20 11:52:35;;;;;;;3.20;0.40;;;26.40;81.30;;;;;;4921054;28;20060;-80
2023/08/20 11:55:01;;;;;;;3.97;0.50;;;26.30;81.60;;;;;;4937960;28;20062;-86
2023/08/20 11:57:29;;;;;;;3.45;0.30;;;26.30;81.90;;;;;;4946662;28;21540;-79
2023/08/20 11:59:59;;;;;;;2.42;0.30;;;26.20;82.30;;;;;;4942139;28;20156;-78
2023/08/20 12:02:35;;;;;;;3.20;0.30;;;26.20;82.30;;;;;;4926964;28;20105;-83
2023/08/20 12:05:02;;;;;;;3.05;0.30;;;25.30;84.40;;;;;;4923902;28;20061;-79
2023/08/20 12:07:30;;;;;;;2.25;0.20;;;26.30;84.50;;;;;;4948912;28;20133;-86
2023/08/20 12:09:56;;;;;;;2.92;0.32;;;26.20;83.70;;;;;;4936472;28;20072;-73
2023/08/20 12:12:22;;;;;;;3.38;0.28;;;26.10;83.90;;;;;;4928749;28;20045;-72
2023/08/20 12:14:49;;;;;;;4.82;0.50;;;26.10;83.30;;;;;;4940150;28;20054;-76
2023/08/20 12:17:21;;;;;;;2.30;0.30;;;26.00;83.80;;;;;;4939111;28;20294;-75
2023/08/20 12:19:47;;;;;;;3.72;0.30;;;26.00;83.80;;;;;;4936230;28;20152;-86
2023/08/20 12:22:13;;;;;;;4.88;0.38;;;25.90;83.40;;;;;;4933734;28;20073;-76
2023/08/20 12:24:44;;;;;;;5.18;0.40;;;25.80;83.20;;;;;;4922635;28;20317;-75
2023/08/20 12:27:12;;;;;;;2.80;0.20;;;25.70;83.60;;;;;;4942775;28;20055;-84
2023/08/20 12:29:42;;;;;;;1.45;0.20;;;25.50;84.20;;;;;;4936564;28;20585;-73
2023/08/20 12:32:14;;;;;;;5.28;0.38;;;25.40;83.70;;;;;;4952759;28;20378;-83
2023/08/20 12:34:40;;;;;;;4.03;0.20;;;25.30;83.00;;;;;;4953102;28;20388;-75
2023/08/20 12:37:06;;;;;;;2.00;0.20;;;25.10;83.60;;;;;;4932871;28;20208;-73
2023/08/20 12:39:36;;;;;;;4.60;0.30;;;25.00;83.80;;;;;;4946366;28;20057;-76
2023/08/20 12:42:02;;;;;;;1.92;0.20;;;24.90;85.40;;;;;;4947027;28;20132;-75